Time;durP1;ratioP1;P1;durP2;ratioP2;P2;SDS_P1;SDS_P2;PMS_P1;PMS_P2;Temp;Humidity;BMP_temperature;BMP_pressure;BME280_temperature;BME280_humidity;BME280_pressure;Samples;Min_cycle;Max_cycle;Signal;HPM_P1;HPM_P2
2022/12/12 00:01:21;;;;;;;1999.90;999.90;;;0.90;99.90;;;;;;5033916;28;20675;-66
2022/12/12 00:03:47;;;;;;;1999.90;999.90;;;0.90;99.90;;;;;;5034317;28;20179;-66
2022/12/12 00:06:12;;;;;;;1999.90;999.90;;;0.80;99.90;;;;;;5033921;28;20173;-66
2022/12/12 00:08:38;;;;;;;1999.90;999.90;;;0.80;99.90;;;;;;5033909;28;20176;-66
2022/12/12 00:11:05;;;;;;;1999.90;999.90;;;0.80;99.90;;;;;;5034368;28;20168;-66
2022/12/12 00:13:31;;;;;;;1999.90;999.90;;;0.70;99.90;;;;;;5033725;28;20168;-66
2022/12/12 00:15:56;;;;;;;1999.90;999.90;;;0.70;99.90;;;;;;5033823;28;20259;-66
2022/12/12 00:18:22;;;;;;;1999.90;999.90;;;0.70;99.90;;;;;;5033760;28;20177;-66
2022/12/12 00:20:55;;;;;;;1999.90;999.90;;;0.70;99.90;;;;;;5033599;28;20381;-66
2022/12/12 00:23:23;;;;;;;1999.90;999.90;;;0.70;99.90;;;;;;5032622;28;20431;-66
2022/12/12 00:25:57;;;;;;;1999.90;999.90;;;0.60;99.90;;;;;;5033268;28;20175;-66
2022/12/12 00:28:23;;;;;;;1999.90;999.90;;;0.60;99.90;;;;;;5032979;28;20176;-66
2022/12/12 00:30:50;;;;;;;1999.90;999.90;;;0.60;99.90;;;;;;5033079;28;20275;-66
2022/12/12 00:33:15;;;;;;;1999.90;999.90;;;0.60;99.90;;;;;;5033356;28;20176;-66
2022/12/12 00:35:41;;;;;;;1999.90;999.90;;;0.50;99.90;;;;;;5032997;28;20211;-66
2022/12/12 00:38:07;;;;;;;1999.90;999.90;;;0.50;99.90;;;;;;5032886;28;20184;-66
2022/12/12 00:40:32;;;;;;;1999.90;999.90;;;0.50;99.90;;;;;;5033270;28;20192;-66
2022/12/12 00:42:58;;;;;;;1999.90;999.90;;;0.50;99.90;;;;;;5033028;28;20817;-66
2022/12/12 00:45:24;;;;;;;1999.90;999.90;;;0.50;99.90;;;;;;5033060;28;20187;-66
2022/12/12 00:47:49;;;;;;;1999.90;999.90;;;0.50;99.90;;;;;;5032846;28;20180;-66
2022/12/12 00:50:15;;;;;;;1999.90;999.90;;;0.50;99.90;;;;;;5032698;28;20204;-66
2022/12/12 00:52:41;;;;;;;1999.90;999.90;;;0.60;99.90;;;;;;5033006;28;20168;-66
2022/12/12 00:55:08;;;;;;;1999.90;999.90;;;0.60;99.90;;;;;;5032907;28;20212;-66
2022/12/12 00:57:34;;;;;;;1999.90;999.90;;;0.60;99.90;;;;;;5032695;28;20168;-66
2022/12/12 01:00:00;;;;;;;1999.90;999.90;;;0.70;1.00;;;;;;5032828;28;20187;-66
2022/12/12 01:02:25;;;;;;;1999.90;999.90;;;0.70;99.90;;;;;;5032882;28;20247;-66
2022/12/12 01:04:51;;;;;;;1999.90;999.90;;;0.60;99.90;;;;;;5032748;28;20172;-66
2022/12/12 01:07:16;;;;;;;1999.90;999.90;;;0.60;1.00;;;;;;5032552;28;20164;-66
2022/12/12 01:09:42;;;;;;;1999.90;999.90;;;0.60;1.00;;;;;;5032592;28;20246;-66
2022/12/12 01:12:07;;;;;;;1999.90;999.90;;;0.60;1.00;;;;;;5032752;28;20175;-66
2022/12/12 01:14:33;;;;;;;1999.90;999.90;;;0.60;1.00;;;;;;5032659;28;20592;-66
2022/12/12 01:16:58;;;;;;;1999.90;999.90;;;0.70;1.00;;;;;;5032470;28;20165;-66
2022/12/12 01:19:24;;;;;;;1999.90;999.90;;;0.80;1.00;;;;;;5032547;28;20180;-66
2022/12/12 01:21:50;;;;;;;1999.90;999.90;;;0.70;1.00;;;;;;5032554;28;20199;-66
2022/12/12 01:24:15;;;;;;;1999.90;999.90;;;0.80;1.00;;;;;;5032469;28;20537;-66
2022/12/12 01:26:41;;;;;;;1999.90;999.90;;;0.80;1.00;;;;;;5032403;28;20169;-66
2022/12/12 01:29:06;;;;;;;1999.90;999.90;;;0.80;1.00;;;;;;5032425;28;20279;-66
2022/12/12 01:31:32;;;;;;;1999.90;999.90;;;0.80;1.00;;;;;;5032383;28;20177;-66
2022/12/12 01:33:58;;;;;;;1999.90;999.90;;;0.90;1.00;;;;;;5032256;28;20172;-66
2022/12/12 01:36:24;;;;;;;1999.90;999.90;;;0.90;1.00;;;;;;5032129;28;20200;-66
2022/12/12 01:38:52;;;;;;;1999.90;999.90;;;1.00;1.00;;;;;;5032053;28;20187;-66
2022/12/12 01:41:19;;;;;;;1999.90;999.90;;;1.00;99.90;;;;;;5031954;28;20405;-66
2022/12/12 01:43:46;;;;;;;1999.90;999.90;;;0.90;99.90;;;;;;5031966;28;20183;-66
2022/12/12 01:46:21;;;;;;;1999.90;999.90;;;0.90;99.90;;;;;;5031806;28;20195;-66
2022/12/12 01:48:55;;;;;;;1999.90;999.90;;;0.90;99.90;;;;;;5031580;28;20743;-66
2022/12/12 01:51:23;;;;;;;1999.90;999.90;;;0.90;99.90;;;;;;5032039;28;20183;-67
2022/12/12 01:53:55;;;;;;;1999.90;999.90;;;0.90;99.90;;;;;;5032124;28;20541;-66
2022/12/12 01:56:21;;;;;;;1999.90;999.90;;;0.90;99.90;;;;;;5031908;28;20204;-66
2022/12/12 01:58:49;;;;;;;1999.90;999.90;;;0.90;1.00;;;;;;5031742;28;20670;-66
2022/12/12 02:01:15;;;;;;;1999.90;999.90;;;0.90;1.00;;;;;;5031855;28;20186;-66
2022/12/12 02:03:42;;;;;;;1999.90;999.90;;;0.90;99.90;;;;;;5032036;28;20215;-66
2022/12/12 02:06:13;;;;;;;1999.90;999.90;;;0.90;99.90;;;;;;5031767;28;20172;-66
2022/12/12 02:08:40;;;;;;;1999.90;999.90;;;0.90;99.90;;;;;;5031778;28;20586;-66
2022/12/12 02:11:06;;;;;;;1999.90;999.90;;;0.90;99.90;;;;;;5031808;28;20275;-66
2022/12/12 02:13:33;;;;;;;1999.90;999.90;;;0.90;99.90;;;;;;5031796;28;20204;-66
2022/12/12 02:16:27;;;;;;;1999.90;999.90;;;0.90;99.90;;;;;;5031545;28;20518;-66
2022/12/12 02:19:00;;;;;;;1999.90;999.90;;;0.90;99.90;;;;;;5031692;28;20196;-66
2022/12/12 02:21:42;;;;;;;1999.90;999.90;;;0.80;99.90;;;;;;5031661;28;20172;-66
2022/12/12 02:24:40;;;;;;;1999.90;999.90;;;0.70;99.90;;;;;;5031757;28;20168;-66
2022/12/12 02:27:08;;;;;;;1999.90;999.90;;;0.70;99.90;;;;;;5031491;28;20659;-66
2022/12/12 02:29:34;;;;;;;1999.90;999.90;;;0.70;99.90;;;;;;5031553;28;20192;-66
2022/12/12 02:32:20;;;;;;;1999.90;999.90;;;0.60;99.90;;;;;;5031715;28;20218;-66
2022/12/12 02:34:46;;;;;;;1999.90;999.90;;;0.60;99.90;;;;;;5031498;28;20323;-66
2022/12/12 02:37:34;;;;;;;1999.90;999.90;;;0.50;99.90;;;;;;5031512;28;20705;-66
2022/12/12 02:40:20;;;;;;;1999.90;999.90;;;0.50;99.90;;;;;;5031331;28;20176;-67
2022/12/12 02:43:13;;;;;;;1999.90;999.90;;;0.40;99.90;;;;;;5031466;28;20161;-66
2022/12/12 02:45:43;;;;;;;1999.90;999.90;;;0.30;99.90;;;;;;5032921;28;20172;-66
2022/12/12 02:48:35;;;;;;;1999.90;999.90;;;0.30;99.90;;;;;;5034993;28;20172;-66
2022/12/12 02:51:04;;;;;;;1999.90;999.90;;;0.20;99.90;;;;;;5030196;28;20234;-66
2022/12/12 02:53:30;;;;;;;1999.90;999.90;;;0.10;99.90;;;;;;5034842;28;20215;-66
2022/12/12 02:56:03;;;;;;;1999.90;999.90;;;0.00;99.90;;;;;;5035065;28;20227;-66
2022/12/12 02:58:31;;;;;;;1999.90;999.90;;;-0.10;99.90;;;;;;5034505;28;20247;-66
2022/12/12 03:01:38;;;;;;;1999.90;999.90;;;-0.20;99.90;;;;;;5034863;28;20597;-66
2022/12/12 03:07:59;;;;;;;1999.90;999.90;;;-0.50;1.00;;;;;;5035137;28;20643;-66
2022/12/12 03:10:50;;;;;;;1999.90;999.90;;;-0.60;1.00;;;;;;5011908;28;20216;-66
2022/12/12 03:13:54;;;;;;;1999.90;999.90;;;-0.60;1.00;;;;;;5034799;28;20184;-66
2022/12/12 03:16:23;;;;;;;1999.90;999.90;;;-0.60;1.00;;;;;;5034679;28;20204;-66
2022/12/12 03:18:57;;;;;;;1999.90;999.90;;;-0.70;1.00;;;;;;5034623;28;20203;-66
2022/12/12 03:21:23;;;;;;;1999.90;999.90;;;-0.70;1.00;;;;;;5034708;28;20195;-66
2022/12/12 03:23:53;;;;;;;1999.90;999.90;;;-0.70;1.00;;;;;;5034610;28;20192;-66
2022/12/12 03:26:28;;;;;;;1999.90;999.90;;;-0.70;1.00;;;;;;5034506;28;20194;-66
2022/12/12 03:29:15;;;;;;;1999.90;999.90;;;-0.70;1.00;;;;;;5034414;28;20567;-66
2022/12/12 03:31:48;;;;;;;1999.90;999.90;;;-0.80;1.00;;;;;;5034508;28;20263;-66
2022/12/12 03:34:21;;;;;;;1999.90;999.90;;;-0.80;1.00;;;;;;5034685;28;20180;-66
2022/12/12 03:36:57;;;;;;;1999.90;999.90;;;-0.80;1.00;;;;;;5034153;28;20200;-66
2022/12/12 03:39:28;;;;;;;1999.90;999.90;;;-0.90;1.00;;;;;;5034163;28;20725;-66
2022/12/12 03:42:02;;;;;;;1999.90;999.90;;;-0.90;1.00;;;;;;5034162;28;20192;-66
2022/12/12 03:44:40;;;;;;;1999.90;999.90;;;-0.90;1.00;;;;;;5034194;28;20174;-66
2022/12/12 03:47:13;;;;;;;1999.90;999.90;;;-0.90;1.00;;;;;;5033742;28;20175;-66
2022/12/12 03:49:45;;;;;;;1999.90;999.90;;;-1.00;1.00;;;;;;5033556;28;20581;-66
2022/12/12 03:52:20;;;;;;;1999.90;999.90;;;-1.00;1.00;;;;;;5033902;28;20167;-66
2022/12/12 03:54:58;;;;;;;1999.90;999.90;;;-1.10;1.00;;;;;;5033735;28;20254;-66
2022/12/12 03:57:33;;;;;;;1999.90;999.90;;;-1.10;1.00;;;;;;5032694;28;20168;-66
2022/12/12 04:00:09;;;;;;;1999.90;999.90;;;-1.20;1.00;;;;;;5033463;28;20278;-67
2022/12/12 04:02:50;;;;;;;1999.90;999.90;;;-1.20;1.00;;;;;;5033551;28;20552;-66
2022/12/12 04:05:21;;;;;;;1999.90;999.90;;;-1.20;1.00;;;;;;5033513;28;20234;-66
2022/12/12 04:08:05;;;;;;;1999.90;999.90;;;-1.20;1.00;;;;;;5033291;28;20172;-66
2022/12/12 04:13:38;;;;;;;1999.90;999.90;;;-1.30;1.00;;;;;;5033672;28;20223;-66
2022/12/12 04:16:38;;;;;;;1999.90;999.90;;;-1.40;1.00;;;;;;5033282;28;20631;-66
2022/12/12 04:23:13;;;;;;;1999.90;999.90;;;-1.40;1.00;;;;;;5011095;28;20204;-66
2022/12/12 04:24:48;;;;;;;1999.90;999.90;;;-1.40;1.00;;;;;;5033487;28;20203;-66
2022/12/12 04:27:20;;;;;;;1999.90;999.90;;;-1.40;1.00;;;;;;5032960;28;20204;-66
2022/12/12 04:29:57;;;;;;;1999.90;999.90;;;-1.40;1.00;;;;;;5032970;28;20192;-66
2022/12/12 04:32:36;;;;;;;1999.90;999.90;;;-1.40;1.00;;;;;;5033194;28;20172;-66
2022/12/12 04:35:16;;;;;;;1999.90;999.90;;;-1.40;1.00;;;;;;5033186;28;20200;-66
2022/12/12 04:37:44;;;;;;;1999.90;999.90;;;-1.40;1.00;;;;;;5033191;28;20171;-66
2022/12/12 04:40:15;;;;;;;1999.90;999.90;;;-1.30;1.00;;;;;;5033481;28;20697;-66
2022/12/12 04:42:51;;;;;;;1999.90;999.90;;;-1.30;1.00;;;;;;5033381;28;20176;-66
2022/12/12 04:45:23;;;;;;;1999.90;999.90;;;-1.30;1.00;;;;;;5033306;28;20171;-66
2022/12/12 04:47:51;;;;;;;1999.90;999.90;;;-1.20;1.00;;;;;;5032972;28;20207;-66
2022/12/12 04:50:19;;;;;;;1999.90;999.90;;;-1.20;1.00;;;;;;5033003;28;20388;-66
2022/12/12 04:52:46;;;;;;;1999.90;999.90;;;-1.20;1.00;;;;;;5033199;28;20177;-66
2022/12/12 04:55:28;;;;;;;1999.90;999.90;;;-1.20;1.00;;;;;;5032869;28;20196;-66
2022/12/12 04:57:54;;;;;;;1999.90;999.90;;;-1.20;1.00;;;;;;5032410;28;20528;-67
2022/12/12 05:00:22;;;;;;;1999.90;999.90;;;-1.20;1.00;;;;;;5032313;28;20250;-67
2022/12/12 05:03:04;;;;;;;1999.90;999.90;;;-1.20;1.00;;;;;;5032414;28;20172;-67
2022/12/12 05:05:36;;;;;;;1999.90;999.90;;;-1.20;1.00;;;;;;5032375;28;20168;-67
2022/12/12 05:08:13;;;;;;;1999.90;999.90;;;-1.10;1.00;;;;;;5031840;28;20203;-67
2022/12/12 05:10:49;;;;;;;1999.90;999.90;;;-1.10;1.00;;;;;;5032184;28;20215;-67
2022/12/12 05:13:17;;;;;;;1999.90;999.90;;;-1.10;1.00;;;;;;5024461;28;20673;-67
2022/12/12 05:15:43;;;;;;;1999.90;999.90;;;-1.00;1.00;;;;;;5012524;28;20275;-67
2022/12/12 05:18:10;;;;;;;1999.90;999.90;;;-1.00;1.00;;;;;;5012164;28;20169;-67
2022/12/12 05:20:37;;;;;;;1999.90;999.90;;;-1.00;1.00;;;;;;5012399;28;20594;-67
2022/12/12 05:23:03;;;;;;;1999.90;999.90;;;-1.00;1.00;;;;;;5012338;28;20176;-67
2022/12/12 05:25:28;;;;;;;1999.90;999.90;;;-0.90;1.00;;;;;;5012202;28;20177;-67
2022/12/12 05:27:54;;;;;;;1999.90;999.90;;;-0.90;1.00;;;;;;5012020;28;20227;-67
2022/12/12 05:30:20;;;;;;;1999.90;999.90;;;-0.90;1.00;;;;;;5012234;28;20201;-67
2022/12/12 05:32:46;;;;;;;1999.90;999.90;;;-0.80;1.00;;;;;;5012243;28;20173;-67
2022/12/12 05:35:11;;;;;;;1999.90;999.90;;;-0.80;1.00;;;;;;5012137;28;20209;-67
2022/12/12 05:37:37;;;;;;;1999.90;999.90;;;-0.80;1.00;;;;;;5011971;28;20252;-67
2022/12/12 05:40:05;;;;;;;1999.90;999.90;;;-0.70;1.00;;;;;;5012062;28;20189;-67
2022/12/12 05:42:31;;;;;;;1999.90;999.90;;;-0.70;1.00;;;;;;5012142;28;20180;-67
2022/12/12 05:44:56;;;;;;;1999.90;999.90;;;-0.70;1.00;;;;;;5012207;28;20256;-67
2022/12/12 05:47:22;;;;;;;1999.90;999.90;;;-0.70;1.00;;;;;;5011917;28;20191;-67
2022/12/12 05:49:47;;;;;;;1999.90;999.90;;;-0.70;1.00;;;;;;5011883;28;20556;-67
2022/12/12 05:52:13;;;;;;;1999.90;999.90;;;-0.60;1.00;;;;;;5012036;28;20173;-67
2022/12/12 05:54:41;;;;;;;1999.90;999.90;;;-0.60;1.00;;;;;;5011890;28;20180;-67
2022/12/12 05:57:08;;;;;;;1999.90;999.90;;;-0.60;1.00;;;;;;5011816;28;20674;-67
2022/12/12 05:59:33;;;;;;;1999.90;999.90;;;-0.60;1.00;;;;;;5011653;28;20339;-67
2022/12/12 06:01:59;;;;;;;1999.90;999.90;;;-0.70;1.00;;;;;;5011871;28;20201;-67
2022/12/12 06:04:25;;;;;;;1999.90;999.90;;;-0.70;1.00;;;;;;5011997;28;20534;-67
2022/12/12 06:06:50;;;;;;;1999.90;999.90;;;-0.70;1.00;;;;;;5012340;28;20244;-66
2022/12/12 06:09:16;;;;;;;1999.90;999.90;;;-0.70;1.00;;;;;;5012524;28;20663;-66
2022/12/12 06:11:42;;;;;;;1999.90;999.90;;;-0.70;1.00;;;;;;5012398;28;20180;-66
2022/12/12 06:14:07;;;;;;;1999.90;999.90;;;-0.60;1.00;;;;;;5012566;28;20462;-66
2022/12/12 06:16:34;;;;;;;1999.90;999.90;;;-0.70;1.00;;;;;;5012404;28;20228;-66
2022/12/12 06:18:59;;;;;;;1999.90;999.90;;;-0.70;1.00;;;;;;5012008;28;20710;-66
2022/12/12 06:21:25;;;;;;;1999.90;999.90;;;-0.70;1.00;;;;;;5014968;28;20213;-66
2022/12/12 06:23:51;;;;;;;1999.90;999.90;;;-0.70;1.00;;;;;;5016167;28;20259;-66
2022/12/12 06:26:18;;;;;;;1999.90;999.90;;;-0.80;1.00;;;;;;5016054;28;20431;-66
2022/12/12 06:28:43;;;;;;;1999.90;999.90;;;-0.80;1.00;;;;;;5016004;28;20169;-66
2022/12/12 06:31:10;;;;;;;1999.90;999.90;;;-0.80;1.00;;;;;;5016282;28;20192;-66
2022/12/12 06:33:37;;;;;;;1999.90;999.90;;;-0.90;1.00;;;;;;5015960;28;20181;-66
2022/12/12 06:36:04;;;;;;;1999.90;999.90;;;-0.80;99.90;;;;;;5015527;28;20255;-66
2022/12/12 06:38:30;;;;;;;1999.90;999.90;;;-0.90;99.90;;;;;;5015364;28;20545;-66
2022/12/12 06:40:56;;;;;;;1999.90;999.90;;;-0.90;99.90;;;;;;5015745;28;20165;-66
2022/12/12 06:43:23;;;;;;;1999.90;999.90;;;-1.00;99.90;;;;;;5015797;28;20260;-66
2022/12/12 06:45:48;;;;;;;1999.90;999.90;;;-1.00;99.90;;;;;;5015838;28;20515;-66
2022/12/12 06:48:14;;;;;;;1999.90;999.90;;;-1.00;99.90;;;;;;5015602;28;20260;-66
2022/12/12 06:50:44;;;;;;;1999.90;999.90;;;-1.10;99.90;;;;;;5015618;28;20219;-66
2022/12/12 06:53:10;;;;;;;1999.90;999.90;;;-1.10;99.90;;;;;;5015702;28;20404;-66
2022/12/12 06:55:42;;;;;;;1999.90;999.90;;;-1.10;99.90;;;;;;5015779;28;20763;-66
2022/12/12 06:58:08;;;;;;;1999.90;999.90;;;-1.20;99.90;;;;;;5015303;28;20200;-66
2022/12/12 07:00:34;;;;;;;1999.90;999.90;;;-1.20;99.90;;;;;;5015252;28;20197;-66
2022/12/12 07:03:00;;;;;;;1999.90;999.90;;;-1.20;99.90;;;;;;5015352;28;20284;-66
2022/12/12 07:05:25;;;;;;;1999.90;999.90;;;-1.30;99.90;;;;;;5015250;28;20600;-66
2022/12/12 07:07:51;;;;;;;1999.90;999.90;;;-1.30;99.90;;;;;;5014875;28;20659;-66
2022/12/12 07:10:17;;;;;;;1999.90;999.90;;;-1.40;99.90;;;;;;5015086;28;20185;-66
2022/12/12 07:12:42;;;;;;;1999.90;999.90;;;-1.40;99.90;;;;;;5015316;28;20192;-66
2022/12/12 07:15:08;;;;;;;1999.90;999.90;;;-1.40;99.90;;;;;;5015006;28;20554;-66
2022/12/12 07:17:34;;;;;;;1999.90;999.90;;;-1.50;99.90;;;;;;5014806;28;20157;-66
2022/12/12 07:20:00;;;;;;;1999.90;999.90;;;-1.60;99.90;;;;;;5014815;28;20198;-66
2022/12/12 07:22:25;;;;;;;1999.90;999.90;;;-1.70;99.90;;;;;;5014713;28;20176;-66
2022/12/12 07:24:51;;;;;;;1999.90;999.90;;;-1.70;99.90;;;;;;5014705;28;20176;-66
2022/12/12 07:27:17;;;;;;;1999.90;999.90;;;-1.70;99.90;;;;;;5014668;28;20173;-66
2022/12/12 07:29:43;;;;;;;1999.90;999.90;;;-1.80;99.90;;;;;;5014537;28;20193;-66
2022/12/12 07:32:08;;;;;;;1999.90;999.90;;;-1.80;99.90;;;;;;5014191;28;20933;-66
2022/12/12 07:34:34;;;;;;;1999.90;999.90;;;-1.80;99.90;;;;;;5014140;28;20678;-66
2022/12/12 07:37:00;;;;;;;1999.90;999.90;;;-1.80;99.90;;;;;;5014048;28;20168;-66
2022/12/12 07:39:29;;;;;;;1999.90;999.90;;;-1.80;99.90;;;;;;5014432;28;20185;-66
2022/12/12 07:41:54;;;;;;;1999.90;999.90;;;-1.70;99.90;;;;;;5014255;28;20172;-66
2022/12/12 07:44:20;;;;;;;1999.90;999.90;;;-1.70;99.90;;;;;;5014525;28;20169;-66
2022/12/12 07:46:45;;;;;;;1999.90;999.90;;;-1.80;99.90;;;;;;5014108;28;20173;-66
2022/12/12 07:49:11;;;;;;;1999.90;999.90;;;-1.80;99.90;;;;;;5014138;28;20607;-66
2022/12/12 07:51:37;;;;;;;1999.90;999.90;;;-1.70;99.90;;;;;;5014278;28;20192;-66
2022/12/12 07:54:03;;;;;;;1999.90;999.90;;;-1.70;99.90;;;;;;5014293;28;20207;-66
2022/12/12 07:56:29;;;;;;;1999.90;999.90;;;-1.60;99.90;;;;;;5013908;28;20205;-66
2022/12/12 07:58:54;;;;;;;1999.90;999.90;;;-1.60;99.90;;;;;;5013626;28;20428;-66
2022/12/12 08:01:23;;;;;;;1999.90;999.90;;;-1.50;1.00;;;;;;5013859;28;20185;-66
2022/12/12 08:03:49;;;;;;;1999.90;999.90;;;-1.60;1.00;;;;;;5013796;28;20169;-66
2022/12/12 08:06:16;;;;;;;1999.90;999.90;;;-1.60;1.00;;;;;;5013686;28;20177;-66
2022/12/12 08:08:42;;;;;;;1999.90;999.90;;;-1.60;1.00;;;;;;5013585;28;20177;-66
2022/12/12 08:11:09;;;;;;;1999.90;999.90;;;-1.50;1.00;;;;;;5013764;28;20177;-66
2022/12/12 08:13:36;;;;;;;1999.90;999.90;;;-1.50;1.00;;;;;;5013699;28;20166;-66
2022/12/12 08:16:03;;;;;;;1999.90;999.90;;;-1.50;99.90;;;;;;5013620;28;20690;-66
2022/12/12 08:18:29;;;;;;;1999.90;999.90;;;-1.50;99.90;;;;;;5013190;28;20161;-66
2022/12/12 08:20:55;;;;;;;1999.90;999.90;;;-1.50;99.90;;;;;;5013582;28;20184;-66
2022/12/12 08:23:20;;;;;;;1999.90;999.90;;;-1.50;99.90;;;;;;5013637;28;20249;-66
2022/12/12 08:25:46;;;;;;;1999.90;999.90;;;-1.50;99.90;;;;;;5013412;28;20173;-66
2022/12/12 08:28:12;;;;;;;1999.90;999.90;;;-1.50;99.90;;;;;;5013379;28;20180;-66
2022/12/12 08:30:37;;;;;;;1999.90;999.90;;;-1.50;99.90;;;;;;5013221;28;20555;-66
2022/12/12 08:33:03;;;;;;;1999.90;999.90;;;-1.50;99.90;;;;;;5013421;28;20173;-66
2022/12/12 08:35:29;;;;;;;1999.90;999.90;;;-1.50;99.90;;;;;;5013191;28;20200;-66
2022/12/12 08:37:55;;;;;;;1999.90;999.90;;;-1.50;99.90;;;;;;5013146;28;20256;-66
2022/12/12 08:40:21;;;;;;;1999.90;999.90;;;-1.50;99.90;;;;;;5013362;28;20268;-66
2022/12/12 08:42:46;;;;;;;1999.90;999.90;;;-1.50;99.90;;;;;;5012781;28;20960;-66
2022/12/12 08:45:12;;;;;;;1999.90;999.90;;;-1.40;99.90;;;;;;5013142;28;20169;-66
2022/12/12 08:47:37;;;;;;;1999.90;999.90;;;-1.40;99.90;;;;;;5013067;28;20173;-66
2022/12/12 08:50:04;;;;;;;1999.90;999.90;;;-1.30;99.90;;;;;;5013248;28;20209;-66
2022/12/12 08:52:30;;;;;;;1999.90;999.90;;;-1.30;99.90;;;;;;5013818;28;20169;-66
2022/12/12 08:54:55;;;;;;;1999.90;999.90;;;-1.20;1.00;;;;;;5013559;28;20223;-66
2022/12/12 08:57:22;;;;;;;1999.90;999.90;;;-1.10;1.00;;;;;;5013266;28;20169;-66
2022/12/12 08:59:47;;;;;;;1999.90;999.90;;;-0.90;1.00;;;;;;5013406;28;20685;-66
2022/12/12 09:02:13;;;;;;;1999.90;999.90;;;-0.80;99.90;;;;;;5013348;28;20252;-66
2022/12/12 09:04:39;;;;;;;1999.90;999.90;;;-0.80;99.90;;;;;;5013255;28;20802;-66
2022/12/12 09:07:05;;;;;;;1999.90;999.90;;;-0.70;99.90;;;;;;5013307;28;20176;-66
2022/12/12 09:09:31;;;;;;;1999.90;999.90;;;-0.60;99.90;;;;;;5013467;28;20197;-66
2022/12/12 09:11:57;;;;;;;1999.90;999.90;;;-0.60;99.90;;;;;;5013262;28;20651;-66
2022/12/12 09:14:23;;;;;;;1999.90;999.90;;;-0.60;99.90;;;;;;5013058;28;20176;-66
2022/12/12 09:16:49;;;;;;;1999.90;999.90;;;-0.60;1.00;;;;;;5012342;28;20884;-66
2022/12/12 09:19:15;;;;;;;1999.90;999.90;;;-0.60;1.00;;;;;;5012385;28;20193;-66
2022/12/12 09:21:40;;;;;;;1999.90;999.90;;;-0.50;1.00;;;;;;5012587;28;20165;-66
2022/12/12 09:24:06;;;;;;;1999.90;999.90;;;-0.40;99.90;;;;;;5012812;28;20177;-66
2022/12/12 09:26:32;;;;;;;1999.90;999.90;;;-0.50;99.90;;;;;;5012558;28;20184;-66
2022/12/12 09:28:58;;;;;;;1999.90;999.90;;;-0.50;99.90;;;;;;5012582;28;20192;-66
2022/12/12 09:31:23;;;;;;;1999.90;999.90;;;-0.50;99.90;;;;;;5013193;28;20173;-66
2022/12/12 09:33:49;;;;;;;1999.90;999.90;;;-0.50;99.90;;;;;;5012854;28;20172;-66
2022/12/12 09:36:15;;;;;;;1999.90;999.90;;;-0.50;99.90;;;;;;5013202;28;20205;-66
2022/12/12 09:38:41;;;;;;;1999.90;999.90;;;-0.40;99.90;;;;;;5012529;28;20173;-67
2022/12/12 09:41:14;;;;;;;1999.90;999.90;;;-0.30;99.90;;;;;;5013150;28;20798;-66
2022/12/12 09:44:08;;;;;;;1999.90;999.90;;;-0.20;99.90;;;;;;5012860;28;20482;-66
2022/12/12 09:46:36;;;;;;;1999.90;999.90;;;-0.10;99.90;;;;;;5007322;28;20227;-66
2022/12/12 09:49:14;;;;;;;1999.90;999.90;;;0.00;99.90;;;;;;5012222;28;20212;-66
2022/12/12 09:51:41;;;;;;;1999.90;999.90;;;0.00;1.00;;;;;;5012646;28;20160;-66
2022/12/12 09:54:12;;;;;;;1999.90;999.90;;;0.00;92.00;;;;;;5013285;28;20169;-67
2022/12/12 09:57:05;;;;;;;1999.90;999.90;;;0.00;99.90;;;;;;5016119;28;20200;-67
2022/12/12 09:59:36;;;;;;;1999.90;999.90;;;0.20;99.90;;;;;;5016414;28;20197;-67
2022/12/12 10:02:22;;;;;;;1999.90;999.90;;;0.30;99.90;;;;;;5016051;28;20172;-67
2022/12/12 10:05:00;;;;;;;1999.90;999.90;;;0.40;1.00;;;;;;5015984;28;20661;-67
2022/12/12 10:07:33;;;;;;;1999.90;999.90;;;0.50;99.90;;;;;;5015671;28;20172;-67
2022/12/12 10:10:23;;;;;;;1999.90;999.90;;;0.50;1.00;;;;;;5015700;28;20285;-67
2022/12/12 10:12:50;;;;;;;1999.90;999.90;;;0.60;99.90;;;;;;5015784;28;20180;-67
2022/12/12 10:15:27;;;;;;;1999.90;999.90;;;0.60;1.00;;;;;;5015644;28;20189;-67
2022/12/12 10:17:55;;;;;;;1999.90;999.90;;;0.50;69.80;;;;;;5015495;28;20242;-67
2022/12/12 10:20:24;;;;;;;1999.90;999.90;;;0.70;99.90;;;;;;5015603;28;20691;-67
2022/12/12 10:23:18;;;;;;;1999.90;999.90;;;0.80;1.00;;;;;;5015730;28;20556;-67
2022/12/12 10:25:51;;;;;;;1999.90;999.90;;;0.90;1.00;;;;;;5015664;28;20169;-66
2022/12/12 10:28:20;;;;;;;1999.90;999.90;;;1.00;99.90;;;;;;5015381;28;20181;-66
2022/12/12 10:31:17;;;;;;;1999.90;999.90;;;0.90;90.50;;;;;;5015386;28;20192;-66
2022/12/12 10:34:17;;;;;;;1999.90;999.90;;;1.00;99.90;;;;;;5001324;28;20185;-66
2022/12/12 10:37:05;;;;;;;1999.90;999.90;;;1.10;99.90;;;;;;5015278;28;20205;-66
2022/12/12 10:39:57;;;;;;;1999.90;999.90;;;1.20;1.00;;;;;;5015289;28;20667;-66
2022/12/12 10:42:25;;;;;;;1999.90;999.90;;;1.30;99.90;;;;;;5009695;28;20272;-66
2022/12/12 10:45:16;;;;;;;1999.90;999.90;;;1.30;99.90;;;;;;5015378;28;20173;-66
2022/12/12 10:47:46;;;;;;;1999.90;999.90;;;1.30;1.00;;;;;;5014920;28;20550;-66
2022/12/12 10:50:26;;;;;;;1999.90;999.90;;;1.40;99.90;;;;;;5014900;28;20209;-66
2022/12/12 10:52:51;;;;;;;1999.90;999.90;;;1.60;99.90;;;;;;5015086;28;20173;-66
2022/12/12 10:55:39;;;;;;;1999.90;999.90;;;1.70;1.00;;;;;;5015108;28;20223;-66
2022/12/12 10:58:05;;;;;;;1999.90;999.90;;;1.90;1.00;;;;;;5007298;28;20192;-66
2022/12/12 11:00:38;;;;;;;1999.90;999.90;;;2.00;99.90;;;;;;5014919;28;20197;-66
2022/12/12 11:03:23;;;;;;;1999.90;999.90;;;2.10;1.00;;;;;;5015066;28;20173;-66
2022/12/12 11:05:49;;;;;;;1999.90;999.90;;;2.20;99.90;;;;;;5014608;28;20651;-66
2022/12/12 11:08:50;;;;;;;1999.90;999.90;;;2.40;14.30;;;;;;5014582;28;20205;-67
2022/12/12 11:11:22;;;;;;;1999.90;999.90;;;2.60;1.00;;;;;;5014641;28;20415;-67
2022/12/12 11:13:53;;;;;;;1999.90;999.90;;;2.90;1.00;;;;;;5014627;28;20231;-67
2022/12/12 11:16:22;;;;;;;1999.90;999.90;;;3.30;99.90;;;;;;5014351;28;20197;-67
2022/12/12 11:19:16;;;;;;;1999.90;999.90;;;3.90;1.00;;;;;;5014859;28;20193;-66
2022/12/12 11:21:44;;;;;;;1999.90;999.90;;;4.70;99.90;;;;;;5011958;28;20169;-67
2022/12/12 11:24:16;;;;;;;1999.90;999.90;;;5.40;99.90;;;;;;5015255;28;20905;-68
2022/12/12 11:26:47;;;;;;;1999.90;999.90;;;6.00;99.90;;;;;;5013520;28;20439;-68
2022/12/12 11:29:27;;;;;;;1999.90;999.90;;;6.50;1.00;;;;;;5013246;28;20428;-71
2022/12/12 11:31:53;;;;;;;1999.90;999.90;;;6.80;1.00;;;;;;5013593;28;20454;-69
2022/12/12 11:34:20;;;;;;;1999.90;999.90;;;7.10;99.90;;;;;;5014341;28;20765;-68
2022/12/12 11:36:47;;;;;;;1999.90;999.90;;;7.20;99.90;;;;;;5013236;28;20551;-68
2022/12/12 11:39:22;;;;;;;1999.90;999.90;;;7.60;99.90;;;;;;5013913;28;20420;-67
2022/12/12 11:42:04;;;;;;;1999.90;999.90;;;7.70;99.90;;;;;;5013953;28;20820;-68
2022/12/12 11:44:34;;;;;;;1999.90;999.90;;;7.90;99.90;;;;;;5013179;28;20476;-68
2022/12/12 11:47:24;;;;;;;1999.90;999.90;;;8.10;99.90;;;;;;5013826;28;20412;-68
2022/12/12 11:49:53;;;;;;;1999.90;999.90;;;8.50;99.90;;;;;;5012969;28;20574;-68
2022/12/12 11:52:29;;;;;;;1999.90;999.90;;;8.90;99.90;;;;;;5012820;28;20402;-68
2022/12/12 11:54:56;;;;;;;1999.90;999.90;;;9.30;99.90;;;;;;5013226;28;20421;-68
2022/12/12 11:57:37;;;;;;;1999.90;999.90;;;9.70;99.90;;;;;;5013177;28;20934;-69
2022/12/12 12:00:09;;;;;;;1999.90;999.90;;;9.60;99.90;;;;;;5013301;28;20465;-68
2022/12/12 12:03:07;;;;;;;1999.90;999.90;;;9.50;99.90;;;;;;5012939;28;20948;-68
2022/12/12 12:05:39;;;;;;;1999.90;999.90;;;9.50;99.90;;;;;;5004195;28;20431;-68
2022/12/12 12:08:15;;;;;;;1999.90;999.90;;;9.70;99.90;;;;;;5013036;28;20470;-68
2022/12/12 12:10:56;;;;;;;1999.90;999.90;;;10.30;99.90;;;;;;5012926;28;20439;-68
2022/12/12 12:13:33;;;;;;;1999.90;999.90;;;10.90;99.90;;;;;;5012475;28;20418;-68
2022/12/12 12:16:28;;;;;;;1999.90;999.90;;;10.90;99.90;;;;;;5012890;28;20534;-69
2022/12/12 12:19:05;;;;;;;1999.90;999.90;;;11.30;99.90;;;;;;5012001;28;20845;-69
2022/12/12 12:21:45;;;;;;;1999.90;999.90;;;12.00;99.90;;;;;;5012483;28;20900;-69
2022/12/12 12:24:22;;;;;;;1999.90;999.90;;;12.00;99.90;;;;;;5012386;28;20399;-68
2022/12/12 12:27:18;;;;;;;1999.90;999.90;;;12.20;99.90;;;;;;5012672;28;20821;-69
2022/12/12 12:30:08;;;;;;;1999.90;999.90;;;12.50;99.90;;;;;;5012523;28;20456;-68
2022/12/12 12:33:10;;;;;;;1999.90;999.90;;;12.40;99.90;;;;;;5012425;28;20783;-68
2022/12/12 12:36:07;;;;;;;1999.90;999.90;;;12.50;99.90;;;;;;5012313;28;20450;-68